Bei Facebook empfehlenBei Twitter postenGoogle plusPinterest

Das Wetter im Erzgebirge am 02.03.2015

Wetter und Klima am 02.03.2015 Holzhau im Erzgebirge (630m ü.NN)
Letzte gemessene Temperatur und Uhrzeit der Messung23:45:00 Uhr-1.00 °C
Temperatur (Maximum / Höchstwert) und Uhrzeit der Messung13:30:00 Uhr5.90 °C
Temperatur (Minimum / Tiefstwert) und Uhrzeit der Messung23:45:00-1.00 °C
Errechneter Absolutwert der Temperaturschwankungen zwischen Tmin und Tmax des Tages6.90 K
Errechnete Tagesmitteltemperatur2.44792 °C
Gesamt - Niederschlag des Tages (in flüssiger Form)3.11 Liter / m²
Luftdruck (Maximum / Höchstwert) und Zeitpunkt der Messung23:45:00 Uhr1007.30 hPa
Luftdruck (Minimum / Tiefstwert) und Zeitpunkt der Messung06:45:00 Uhr996.50 hPa
Errechneter Absolutwert der Luftdruckschwankungen des Tages10.80 hPa
Höchste gemessene Windgeschwindigkeit und Uhrzeit der Messung07:45:00 Uhr10.80 km/h
Errechnete Windhäufigkeit in Relation zu den Messwerten des Tages16.66667 %
Niedrigste Windkühle (Windchill) und Zeitpunkt der Messung23:45:00 Uhr-1.00 °C
Taupunkt (Maximum / Höchstwert) und Uhrzeit der Messung07:30:00 Uhr2.10 °C
Taupunkt (Minimum / Tiefstwert) und Uhrzeit der Messung20:45:00-5.20 °C
Anzahl der automatisch eingelesenen Messwerte 96

Detaillierte Wetter- und Klima- Messwerte für den 02.03.2015 in Holzhau im Erzgebirge (630m ü.NN)
ZeitTemperaturLuftdruckRel. LuftfeuchteWindWindrichtungWindchillTaupunktNiederschlag l/m²
23:45:00-1.00 °C1007.30 hPa89.00 %-2.80 °C3.11
23:30:00-0.70 °C1007.00 hPa88.00 %-2.60 °C3.11
23:15:00-0.10 °C1006.60 hPa86.00 %-2.40 °C3.11
23:00:000.50 °C1005.70 hPa83.00 %-2.00 °C3.11
22:45:001.20 °C1005.60 hPa79.00 %-2.00 °C3.11
22:30:001.10 °C1005.00 hPa77.00 %-2.50 °C3.11
22:15:000.30 °C1004.70 hPa78.00 %-3.10 °C3.11
22:00:00-0.20 °C1004.70 hPa78.00 %-4.00 °C3.11
21:45:00-0.70 °C1004.60 hPa78.00 %-4.40 °C3.11
21:30:00-0.60 °C1004.80 hPa77.00 %-4.50 °C3.11
21:15:00-0.70 °C1004.60 hPa77.00 %-4.60 °C3.11
21:00:00-1.00 °C1004.70 hPa76.00 %-5.10 °C3.11
20:45:00-0.70 °C1004.70 hPa74.00 %-5.20 °C3.11
20:30:000.10 °C1004.70 hPa73.00 %-4.20 °C3.11
20:15:000.60 °C1004.90 hPa73.00 %-3.70 °C3.11
20:00:000.90 °C1005.00 hPa73.00 %-3.40 °C3.11
19:45:001.10 °C1004.90 hPa73.00 %-3.20 °C3.11
19:30:001.20 °C1004.80 hPa73.00 %5.04 km/hSW-0.20 °C-3.10 °C3.11
19:15:001.40 °C1004.90 hPa73.00 %-2.90 °C3.11
19:00:001.40 °C1004.60 hPa72.00 %-3.10 °C3.11
18:45:001.40 °C1004.50 hPa70.00 %-3.50 °C3.11
18:30:001.00 °C1004.40 hPa71.00 %-3.70 °C3.11
18:15:001.20 °C1004.10 hPa69.00 %-3.80 °C3.11
18:00:001.80 °C1004.00 hPa68.00 %-3.50 °C3.11
17:45:002.20 °C1003.70 hPa67.00 %-3.30 °C3.11
17:30:002.40 °C1003.50 hPa67.00 %-3.10 °C3.11
17:15:002.50 °C1003.40 hPa65.00 %-3.40 °C3.11
17:00:003.10 °C1003.20 hPa63.00 %-3.20 °C3.11
16:45:003.60 °C1002.90 hPa62.00 %-3.00 °C3.11
16:30:004.10 °C1002.70 hPa60.00 %8.64 km/hNW1.90 °C-3.00 °C3.11
16:15:004.90 °C1002.60 hPa59.00 %-2.40 °C3.11
16:00:005.00 °C1002.30 hPa61.00 %-1.90 °C3.11
15:45:004.00 °C1002.20 hPa65.00 %5.40 km/hWNW2.80 °C-2.00 °C3.11
15:30:003.60 °C1002.00 hPa63.00 %-2.80 °C3.11
15:15:004.30 °C1001.90 hPa61.00 %-2.50 °C3.11
15:00:005.00 °C1001.60 hPa59.00 %5.40 km/hNW3.90 °C-2.30 °C3.11
14:45:005.30 °C1001.20 hPa57.00 %-2.50 °C3.11
14:30:005.80 °C1001.00 hPa59.00 %-1.60 °C3.11
14:15:005.60 °C1000.70 hPa57.00 %9.00 km/hNW3.60 °C-2.20 °C3.11
14:00:005.50 °C1000.50 hPa57.00 %-2.30 °C3.11
13:45:005.80 °C1000.50 hPa58.00 %-1.80 °C3.11
13:30:005.90 °C1000.50 hPa59.00 %-1.50 °C3.11
13:15:005.40 °C1000.20 hPa68.00 %9.72 km/hWNW3.20 °C0.00 °C3.11
13:00:005.30 °C1000.00 hPa67.00 %-0.30 °C3.11
12:45:005.20 °C1000.10 hPa67.00 %9.72 km/hW3.00 °C-0.40 °C3.11
12:30:004.90 °C1000.00 hPa70.00 %8.28 km/hWSW2.90 °C-0.10 °C3.11
12:15:005.10 °C999.90 hPa70.00 %0.10 °C3.11
12:00:004.70 °C999.90 hPa74.00 %0.50 °C3.11
11:45:004.40 °C999.70 hPa74.00 %0.20 °C3.11
11:30:004.60 °C999.30 hPa76.00 %0.70 °C3.11
11:15:004.70 °C999.60 hPa77.00 %1.00 °C3.11
11:00:004.60 °C999.30 hPa76.00 %0.70 °C3.11
10:45:004.50 °C998.70 hPa79.00 %1.20 °C3.11
10:30:004.70 °C999.00 hPa80.00 %1.60 °C3.11
10:15:004.20 °C998.70 hPa84.00 %6.12 km/hW2.80 °C1.70 °C3.11
10:00:003.40 °C998.80 hPa87.00 %1.40 °C3.11
09:45:003.10 °C998.40 hPa88.00 %1.30 °C3.11
09:30:003.20 °C998.50 hPa89.00 %1.60 °C3.11
09:15:003.30 °C998.10 hPa89.00 %1.70 °C3.11
09:00:003.30 °C998.10 hPa90.00 %1.80 °C3.11
08:45:002.90 °C997.80 hPa91.00 %1.60 °C3.11
08:30:002.80 °C997.40 hPa91.00 %2.52 km/hNW2.80 °C1.50 °C3.11
08:15:002.70 °C997.70 hPa91.00 %3.96 km/hW2.70 °C1.40 °C3.11
08:00:003.00 °C997.50 hPa92.00 %1.80 °C3.11
07:45:003.10 °C997.10 hPa92.00 %10.80 km/hWSW0.20 °C1.90 °C3.11
07:30:003.10 °C997.00 hPa93.00 %2.10 °C3.11
07:15:003.00 °C996.70 hPa93.00 %4.68 km/hWSW3.00 °C2.00 °C3.11
07:00:002.90 °C996.80 hPa93.00 %1.90 °C2.59
06:45:002.30 °C996.50 hPa92.00 %1.10 °C2.59
06:30:002.40 °C996.60 hPa92.00 %1.20 °C2.59
06:15:002.50 °C996.50 hPa92.00 %1.30 °C2.59
06:00:002.70 °C997.40 hPa93.00 %5.04 km/hSW1.50 °C1.70 °C2.59
05:45:002.70 °C997.20 hPa93.00 %1.70 °C2.07
05:30:002.60 °C997.10 hPa93.00 %1.60 °C2.07
05:15:002.70 °C997.40 hPa93.00 %2.52 km/hSSO2.70 °C1.70 °C2.07
05:00:002.50 °C997.10 hPa93.00 %5.76 km/hO0.90 °C1.50 °C2.07
04:45:002.50 °C997.50 hPa93.00 %1.50 °C2.07
04:30:002.50 °C997.70 hPa93.00 %1.50 °C1.56
04:15:002.40 °C998.30 hPa93.00 %1.40 °C1.56
04:00:002.20 °C998.80 hPa93.00 %1.20 °C1.56
03:45:002.10 °C998.90 hPa93.00 %1.10 °C1.56
03:30:001.90 °C999.00 hPa93.00 %0.90 °C1.56
03:15:001.50 °C998.80 hPa93.00 %0.50 °C1.56
03:00:001.20 °C999.30 hPa92.00 %0.00 °C1.56
02:45:000.90 °C999.70 hPa92.00 %-0.20 °C1.56
02:30:000.80 °C999.60 hPa92.00 %-0.30 °C1.04
02:15:000.50 °C999.80 hPa92.00 %-0.60 °C1.04
02:00:000.60 °C1000.60 hPa92.00 %-0.50 °C1.04
01:45:001.00 °C1001.10 hPa92.00 %-0.10 °C1.04
01:30:000.80 °C1001.40 hPa92.00 %-0.30 °C1.04
01:15:000.60 °C1001.70 hPa91.00 %-0.70 °C1.04
01:00:000.50 °C1001.70 hPa91.00 %-0.80 °C1.04
00:45:000.50 °C1002.10 hPa91.00 %-0.80 °C0.52
00:30:000.40 °C1002.30 hPa91.00 %-0.90 °C0.52
00:15:000.60 °C1002.50 hPa90.00 %-0.80 °C0.52
00:00:000.90 °C1002.70 hPa90.00 %-0.50 °C 

Permanenter Link zu dieser Seite: Wetter im Erzgebirge am 02.03.2015
Performance-Info: Die Erstellung der Seite / Statistik(en) / Tabelle(n) erforderte 5 Datenbankserver-Abfrage(n) und dauerte 122 Millisekunden. (Dieser Messwert ist von der Gesamt-Auslastung des Servers abhängig.)
Erzgebirge - Wetter | Erzgebirge - Wetter (Mobilgeräte) | Komplette Klimadatenbank